Big Bend Natl Park, Texas
Current Conditions -  °F | °C
As of 5:15 AM on Monday 20 Oct 2014 (Local Time) from KPRS Reporting Station
Overcast Overcast  
Wind Chill: 64°   Ceiling: 4900
Heat Index: 64°   Visibility: 10mi
Dew Point: 59°   Wind: 8mph
Humidity: 84%   Direction: 310°NW
Pressure: 30.02"   Gusts: NA
Location:  29.2°N, 103.2°W
Report Text: KPRS 201015Z AUTO 31007KT 10SM BKN049 OVC080 18/15 A3002 RMK AO2 LTG DSNT NW T01770149
Loading
Personal Weather Stations






























Interactive Weather Map
Tropical Storm Tracking
New forecast layout! Learn more

10-Day Weather Forecast

Advertisements
Track Severe Weather on mobile